createdAt,value
2023-04-01T00:01:04.222Z,0.77
2023-04-01T00:03:31.825Z,1.05
2023-04-01T00:06:01.916Z,1.25
2023-04-01T00:08:28.700Z,0.85
2023-04-01T00:10:56.065Z,0.95
2023-04-01T00:13:26.478Z,0.93
2023-04-01T00:15:54.634Z,0.80
2023-04-01T00:18:21.690Z,0.82
2023-04-01T00:20:49.937Z,0.85
2023-04-01T00:23:17.313Z,0.80
2023-04-01T00:25:48.705Z,1.00
2023-04-01T00:28:17.588Z,0.75
2023-04-01T00:30:47.219Z,0.98
2023-04-01T00:33:14.169Z,1.05
2023-04-01T00:35:41.486Z,0.85
2023-04-01T00:38:08.511Z,0.75
2023-04-01T00:40:40.605Z,1.00
2023-04-01T00:43:14.418Z,1.15
2023-04-01T00:48:19.645Z,0.68
2023-04-01T00:50:55.265Z,1.17
2023-04-01T00:53:23.455Z,0.90
2023-04-01T00:56:08.100Z,1.00
2023-04-01T00:58:39.388Z,1.20
2023-04-01T01:01:08.713Z,0.80
2023-04-01T01:03:37.861Z,0.80
2023-04-01T01:06:04.598Z,0.88
2023-04-01T01:08:53.533Z,0.93
2023-04-01T01:11:42.588Z,0.80
2023-04-01T01:14:15.730Z,0.93
2023-04-01T01:16:53.584Z,0.98
2023-04-01T01:19:29.702Z,1.13
2023-04-01T01:22:35.456Z,0.80
2023-04-01T01:25:07.618Z,1.05
2023-04-01T01:27:36.964Z,0.90
2023-04-01T01:30:23.800Z,0.82
2023-04-01T01:33:08.778Z,1.10
2023-04-01T01:35:59.641Z,0.65
2023-04-01T01:38:31.015Z,0.90
2023-04-01T01:41:01.659Z,0.85
2023-04-01T01:43:34.018Z,0.88
2023-04-01T01:46:07.464Z,1.08
2023-04-01T01:48:39.127Z,1.15
2023-04-01T01:51:09.227Z,1.10
2023-04-01T01:53:39.177Z,0.88
2023-04-01T01:56:06.031Z,1.00
2023-04-01T01:58:43.758Z,0.65
2023-04-01T02:01:15.702Z,0.90
2023-04-01T02:03:44.410Z,0.82
2023-04-01T02:06:18.575Z,1.00
2023-04-01T02:09:04.348Z,0.75
2023-04-01T02:12:02.661Z,0.82
2023-04-01T02:14:42.710Z,0.93
2023-04-01T02:17:23.260Z,0.90
2023-04-01T02:19:57.164Z,0.88
2023-04-01T02:25:15.530Z,0.80
2023-04-01T02:27:45.017Z,0.85
2023-04-01T02:30:13.177Z,0.60
2023-04-01T02:32:43.430Z,1.00
2023-04-01T02:35:14.874Z,0.60
2023-04-01T02:37:49.503Z,0.80
2023-04-01T02:40:19.465Z,0.93
2023-04-01T02:42:46.683Z,0.73
2023-04-01T02:45:14.361Z,0.98
2023-04-01T02:47:41.442Z,0.93
2023-04-01T02:50:09.042Z,0.80
2023-04-01T02:52:35.902Z,0.70
2023-04-01T02:55:02.816Z,0.70
2023-04-01T02:57:30.277Z,1.05
2023-04-01T02:59:57.072Z,0.70
2023-04-01T03:02:23.771Z,0.88
2023-04-01T03:04:50.582Z,0.70
2023-04-01T03:07:17.256Z,0.63
2023-04-01T03:09:44.045Z,0.60
2023-04-01T03:12:10.892Z,0.70
2023-04-01T03:14:37.617Z,0.95
2023-04-01T03:17:04.334Z,0.68
2023-04-01T03:19:31.009Z,0.52
2023-04-01T03:21:57.659Z,1.52
2023-04-01T03:24:24.328Z,0.80
2023-04-01T03:26:51.351Z,0.60
2023-04-01T03:29:20.346Z,0.60
2023-04-01T03:31:47.141Z,0.70
2023-04-01T03:34:13.772Z,1.35
2023-04-01T03:36:40.663Z,0.80
2023-04-01T03:39:10.000Z,1.20
2023-04-01T03:41:39.268Z,0.98
2023-04-01T03:44:06.331Z,0.82
2023-04-01T03:46:35.430Z,1.17
2023-04-01T03:49:12.340Z,0.80
2023-04-01T03:51:40.742Z,1.35
2023-04-01T03:54:07.523Z,0.80
2023-04-01T03:56:34.350Z,0.90
2023-04-01T03:59:04.894Z,0.82
2023-04-01T04:01:31.636Z,0.63
2023-04-01T04:04:01.387Z,0.50
2023-04-01T04:06:28.863Z,1.00
2023-04-01T04:08:55.874Z,1.02
2023-04-01T04:11:23.916Z,1.02
2023-04-01T04:13:53.451Z,1.20
2023-04-01T04:16:22.571Z,1.08
2023-04-01T04:18:49.359Z,1.15
2023-04-01T04:21:16.554Z,0.90
2023-04-01T04:23:44.095Z,1.20
2023-04-01T04:26:14.521Z,1.58
2023-04-01T04:28:41.876Z,1.20
2023-04-01T04:31:08.959Z,1.10
2023-04-01T04:33:38.749Z,1.58
2023-04-01T04:36:06.023Z,1.50
2023-04-01T04:38:32.743Z,0.95
2023-04-01T04:40:59.552Z,1.17
2023-04-01T04:43:26.286Z,0.90
2023-04-01T04:45:52.975Z,1.17
2023-04-01T04:48:21.038Z,1.42
2023-04-01T04:50:50.020Z,1.08
2023-04-01T04:53:20.351Z,2.13
2023-04-01T04:55:51.085Z,1.20
2023-04-01T04:58:18.629Z,1.00
2023-04-01T05:00:46.177Z,1.20
2023-04-01T05:03:13.393Z,1.20
2023-04-01T05:05:40.651Z,1.23
2023-04-01T05:08:07.431Z,1.45
2023-04-01T05:10:34.243Z,1.00
2023-04-01T05:13:01.143Z,1.20
2023-04-01T05:15:27.767Z,1.02
2023-04-01T05:17:54.508Z,0.98
2023-04-01T05:20:24.078Z,1.30
2023-04-01T05:22:50.727Z,1.08
2023-04-01T05:25:17.509Z,1.02
2023-04-01T05:27:44.176Z,1.02
2023-04-01T05:30:11.420Z,1.05
2023-04-01T05:32:38.145Z,0.82
2023-04-01T05:35:05.268Z,1.13
2023-04-01T05:37:32.028Z,0.80
2023-04-01T05:40:01.088Z,0.90
2023-04-01T05:42:27.868Z,1.00
2023-04-01T05:44:57.035Z,1.35
2023-04-01T05:47:23.987Z,0.68
2023-04-01T05:49:52.961Z,1.02
2023-04-01T05:52:19.660Z,0.55
2023-04-01T05:54:46.312Z,1.05
2023-04-01T05:57:13.061Z,0.90
2023-04-01T05:59:39.866Z,0.60
2023-04-01T06:02:07.103Z,0.70
2023-04-01T06:04:38.786Z,0.60
2023-04-01T06:07:16.743Z,0.80
2023-04-01T06:09:45.154Z,1.08
2023-04-01T06:12:49.935Z,0.70
2023-04-01T06:17:55.044Z,0.70
2023-04-01T06:20:30.660Z,0.60
2023-04-01T06:23:03.526Z,0.50
2023-04-01T06:25:51.760Z,0.60
2023-04-01T06:28:46.684Z,0.50
2023-04-01T06:31:13.701Z,0.52
2023-04-01T06:34:21.724Z,0.57
2023-04-01T06:37:00.384Z,0.75
2023-04-01T06:39:41.831Z,0.52
2023-04-01T06:42:47.136Z,0.50
2023-04-01T06:45:35.524Z,0.50
2023-04-01T06:48:07.820Z,0.65
2023-04-01T06:50:52.718Z,0.73
2023-04-01T06:53:27.369Z,0.57
2023-04-01T06:56:16.002Z,0.60
2023-04-01T06:58:57.585Z,0.73
2023-04-01T07:01:30.697Z,0.50
2023-04-01T07:04:02.968Z,0.57
2023-04-01T07:06:41.260Z,0.75
2023-04-01T07:09:15.693Z,0.60
2023-04-01T07:11:46.067Z,0.40
2023-04-01T07:14:33.187Z,0.77
2023-04-01T07:17:20.741Z,0.60
2023-04-01T07:20:04.136Z,0.50
2023-04-01T07:22:36.244Z,0.43
2023-04-01T07:25:13.746Z,0.30
2023-04-01T07:27:40.840Z,0.60
2023-04-01T07:30:21.898Z,0.82
2023-04-01T07:33:12.054Z,0.80
2023-04-01T07:36:01.292Z,0.50
2023-04-01T07:38:49.944Z,1.92
2023-04-01T07:41:23.526Z,0.77
2023-04-01T07:44:00.329Z,0.40
2023-04-01T07:46:50.481Z,0.55
2023-04-01T07:49:57.156Z,0.68
2023-04-01T07:53:09.960Z,0.70
2023-04-01T07:56:15.816Z,0.45
2023-04-01T07:58:42.518Z,0.60
2023-04-01T08:01:21.156Z,1.05
2023-04-01T08:04:26.211Z,0.40
2023-04-01T08:07:03.657Z,0.40
2023-04-01T08:09:43.021Z,0.73
2023-04-01T08:12:32.740Z,0.60
2023-04-01T08:15:28.141Z,0.98
2023-04-01T08:18:13.543Z,0.60
2023-04-01T08:21:04.871Z,0.57
2023-04-01T08:23:45.756Z,0.50
2023-04-01T08:26:18.445Z,0.60
2023-04-01T08:29:03.885Z,0.68
2023-04-01T08:31:59.087Z,0.50
2023-04-01T08:34:47.765Z,0.50
2023-04-01T08:37:28.734Z,0.57
2023-04-01T08:40:17.110Z,0.47
2023-04-01T08:43:08.639Z,0.68
2023-04-01T08:45:44.646Z,0.63
2023-04-01T08:48:43.516Z,0.70
2023-04-01T08:51:36.621Z,0.52
2023-04-01T08:54:30.552Z,0.45
2023-04-01T08:57:33.967Z,0.70
2023-04-01T09:00:41.677Z,0.60
2023-04-01T09:03:24.892Z,0.80
2023-04-01T09:06:23.400Z,0.47
2023-04-01T09:09:23.581Z,0.60
2023-04-01T09:12:14.188Z,0.77
2023-04-01T09:14:57.902Z,0.40
2023-04-01T09:17:55.573Z,0.50
2023-04-01T09:20:47.176Z,0.30
2023-04-01T09:23:41.743Z,0.45
2023-04-01T09:26:27.024Z,0.43
2023-04-01T09:29:27.921Z,0.10
2023-04-01T09:32:09.671Z,0.20
2023-04-01T09:34:42.192Z,0.35
2023-04-01T09:37:33.273Z,0.30
2023-04-01T09:40:38.459Z,0.30
2023-04-01T09:43:26.478Z,0.73
2023-04-01T09:46:20.327Z,0.30
2023-04-01T09:49:14.451Z,0.22
2023-04-01T09:52:00.764Z,0.85
2023-04-01T09:54:39.346Z,0.32
2023-04-01T09:57:51.199Z,0.10
2023-04-01T10:00:24.059Z,0.30
2023-04-01T10:03:29.170Z,0.30
2023-04-01T10:06:15.421Z,0.20
2023-04-01T10:09:27.830Z,0.20
2023-04-01T10:12:20.627Z,0.30
2023-04-01T10:15:06.352Z,0.20
2023-04-01T10:17:51.967Z,0.10
2023-04-01T10:20:28.064Z,0.10
2023-04-01T10:23:10.108Z,0.20
2023-04-01T10:25:57.508Z,0.30
2023-04-01T10:28:39.392Z,0.30
2023-04-01T10:31:44.424Z,0.10
2023-04-01T10:34:35.929Z,0.25
2023-04-01T10:37:30.150Z,0.28
2023-04-01T10:40:25.277Z,0.30
2023-04-01T10:43:04.217Z,0.20
2023-04-01T10:45:42.807Z,0.40
2023-04-01T10:48:45.260Z,0.30
2023-04-01T10:51:39.593Z,0.30
2023-04-01T10:54:06.260Z,0.57
2023-04-01T10:56:47.968Z,0.30
2023-04-01T11:00:09.295Z,0.30
2023-04-01T11:03:02.458Z,0.40
2023-04-01T11:05:50.680Z,0.20
2023-04-01T11:08:29.480Z,0.40
2023-04-01T11:11:15.543Z,0.30
2023-04-01T11:13:57.235Z,0.20
2023-04-01T11:16:59.687Z,0.30
2023-04-01T11:19:51.096Z,0.20
2023-04-01T11:22:59.180Z,1.00
2023-04-01T11:25:38.272Z,0.40
2023-04-01T11:28:22.292Z,0.40
2023-04-01T11:31:14.950Z,0.40
2023-04-01T11:33:49.734Z,0.40
2023-04-01T11:36:28.631Z,0.17
2023-04-01T11:39:14.676Z,0.40
2023-04-01T11:42:04.541Z,0.40
2023-04-01T11:44:36.274Z,0.50
2023-04-01T11:47:33.838Z,0.50
2023-04-01T11:50:18.625Z,0.80
2023-04-01T11:53:12.777Z,0.50
2023-04-01T11:56:24.538Z,0.68
2023-04-01T11:59:32.501Z,0.50
2023-04-01T12:02:25.552Z,0.30
2023-04-01T12:05:14.252Z,0.30
2023-04-01T12:08:10.003Z,0.30
2023-04-01T12:10:51.855Z,0.20
2023-04-01T12:13:43.670Z,0.20
2023-04-01T12:16:32.990Z,0.20
2023-04-01T12:19:28.755Z,0.20
2023-04-01T12:22:39.261Z,0.28
2023-04-01T12:25:21.103Z,0.25
2023-04-01T12:27:54.763Z,0.98
2023-04-01T12:30:36.501Z,0.28
2023-04-01T12:33:26.137Z,0.30
2023-04-01T12:36:17.684Z,0.30
2023-04-01T12:39:02.556Z,0.30
2023-04-01T12:41:54.255Z,0.25
2023-04-01T12:44:38.707Z,0.30
2023-04-01T12:47:51.864Z,0.10
2023-04-01T12:50:46.557Z,0.20
2023-04-01T12:53:35.665Z,0.13
2023-04-01T12:56:24.898Z,0.20
2023-04-01T12:59:17.933Z,0.30
2023-04-01T13:02:01.508Z,0.40
2023-04-01T13:04:39.672Z,0.95
2023-04-01T13:07:12.372Z,0.40
2023-04-01T13:10:00.821Z,0.20
2023-04-01T13:12:52.322Z,0.30
2023-04-01T13:15:41.629Z,0.30
2023-04-01T13:18:16.812Z,0.20
2023-04-01T13:20:43.685Z,0.20
2023-04-01T13:23:14.978Z,0.30
2023-04-01T13:26:13.746Z,0.43
2023-04-01T13:28:59.857Z,0.30
2023-04-01T13:31:51.170Z,0.38
2023-04-01T13:34:48.499Z,0.30
2023-04-01T13:37:50.155Z,0.40
2023-04-01T13:41:03.656Z,0.30
2023-04-01T13:43:55.592Z,0.40
2023-04-01T13:46:42.803Z,0.45
2023-04-01T13:49:35.844Z,0.30
2023-04-01T13:52:27.460Z,0.30
2023-04-01T13:55:03.759Z,0.65
2023-04-01T13:57:58.747Z,0.60
2023-04-01T14:00:56.780Z,0.30
2023-04-01T14:03:40.070Z,0.55
2023-04-01T14:06:18.325Z,0.30
2023-04-01T14:09:12.395Z,0.40
2023-04-01T14:11:57.197Z,0.47
2023-04-01T14:15:01.679Z,0.40
2023-04-01T14:17:49.057Z,0.40
2023-04-01T14:20:26.577Z,0.40
2023-04-01T14:23:10.609Z,0.60
2023-04-01T14:26:00.429Z,0.40
2023-04-01T14:28:36.156Z,0.30
2023-04-01T14:31:27.998Z,0.30
2023-04-01T14:34:16.041Z,0.50
2023-04-01T14:37:13.696Z,1.20
2023-04-01T14:40:02.095Z,0.50
2023-04-01T14:42:28.899Z,0.40
2023-04-01T14:45:19.102Z,0.50
2023-04-01T14:47:48.635Z,0.60
2023-04-01T14:50:19.954Z,0.50
2023-04-01T14:53:12.822Z,0.65
2023-04-01T14:55:45.241Z,0.55
2023-04-01T14:58:17.247Z,0.50
2023-04-01T15:01:05.756Z,0.57
2023-04-01T15:03:54.070Z,0.60
2023-04-01T15:06:30.054Z,0.40
2023-04-01T15:09:03.001Z,0.63
2023-04-01T15:11:51.286Z,0.57
2023-04-01T15:14:41.493Z,0.80
2023-04-01T15:17:35.581Z,0.43
2023-04-01T15:20:23.400Z,0.30
2023-04-01T15:23:08.127Z,0.60
2023-04-01T15:25:56.645Z,0.47
2023-04-01T15:28:26.461Z,0.40
2023-04-01T15:31:01.716Z,0.50
2023-04-01T15:33:28.431Z,0.50
2023-04-01T15:36:16.325Z,0.57
2023-04-01T15:39:04.590Z,0.60
2023-04-01T15:41:41.512Z,0.60
2023-04-01T15:44:44.425Z,0.77
2023-04-01T15:47:33.130Z,0.30
2023-04-01T15:50:38.685Z,0.50
2023-04-01T15:53:14.122Z,0.70
2023-04-01T15:55:51.294Z,0.55
2023-04-01T15:58:56.807Z,0.50
2023-04-01T16:01:44.854Z,0.50
2023-04-01T16:04:29.299Z,0.70
2023-04-01T16:07:23.343Z,0.80
2023-04-01T16:10:11.664Z,0.60
2023-04-01T16:13:06.919Z,0.82
2023-04-01T16:15:42.805Z,0.40
2023-04-01T16:18:39.376Z,0.30
2023-04-01T16:21:20.728Z,0.50
2023-04-01T16:24:24.489Z,0.50
2023-04-01T16:27:12.741Z,1.02
2023-04-01T16:30:36.252Z,1.10
2023-04-01T16:33:28.526Z,0.60
2023-04-01T16:36:25.748Z,0.93
2023-04-01T16:39:18.058Z,0.57
2023-04-01T16:42:08.186Z,0.60
2023-04-01T16:45:16.257Z,0.90
2023-04-01T16:48:02.554Z,0.80
2023-04-01T16:50:40.986Z,0.45
2023-04-01T16:53:18.398Z,0.47
2023-04-01T16:56:01.636Z,0.30
2023-04-01T16:58:50.057Z,0.60
2023-04-01T17:01:40.043Z,0.40
2023-04-01T17:04:24.484Z,0.50
2023-04-01T17:07:00.337Z,0.40
2023-04-01T17:09:46.778Z,0.50
2023-04-01T17:12:48.144Z,0.40
2023-04-01T17:15:40.372Z,0.60
2023-04-01T17:18:25.016Z,0.35
2023-04-01T17:21:14.712Z,0.28
2023-04-01T17:23:45.134Z,0.40
2023-04-01T17:26:42.366Z,0.50
2023-04-01T17:29:22.520Z,0.30
2023-04-01T17:32:27.322Z,0.30
2023-04-01T17:35:08.523Z,0.57
2023-04-01T17:37:57.764Z,0.57
2023-04-01T17:40:50.337Z,0.40
2023-04-01T17:43:37.149Z,0.40
2023-04-01T17:46:32.237Z,0.60
2023-04-01T17:49:18.125Z,0.50
2023-04-01T17:51:49.631Z,0.47
2023-04-01T17:54:38.344Z,0.75
2023-04-01T17:57:26.959Z,0.40
2023-04-01T18:00:13.743Z,0.60
2023-04-01T18:02:58.737Z,0.70
2023-04-01T18:05:32.738Z,0.60
2023-04-01T18:08:12.772Z,0.55
2023-04-01T18:11:14.726Z,0.60
2023-04-01T18:13:41.523Z,0.82
2023-04-01T18:16:13.665Z,0.50
2023-04-01T18:19:17.841Z,0.60
2023-04-01T18:21:47.776Z,0.80
2023-04-01T18:24:20.847Z,2.13
2023-04-01T18:27:01.664Z,0.90
2023-04-01T18:29:51.745Z,0.50
2023-04-01T18:32:55.409Z,0.80
2023-04-01T18:36:03.973Z,0.40
2023-04-01T18:38:47.552Z,0.65
2023-04-01T18:41:16.149Z,0.50
2023-04-01T18:44:04.207Z,0.40
2023-04-01T18:46:53.776Z,0.35
2023-04-01T18:49:35.487Z,0.50
2023-04-01T18:52:21.010Z,0.60
2023-04-01T18:55:16.036Z,0.60
2023-04-01T18:57:54.548Z,0.50
2023-04-01T19:00:36.133Z,0.60
2023-04-01T19:03:25.684Z,0.63
2023-04-01T19:05:54.633Z,0.80
2023-04-01T19:08:27.040Z,0.68
2023-04-01T19:10:56.706Z,0.60
2023-04-01T19:13:43.796Z,0.52
2023-04-01T19:16:29.894Z,0.40
2023-04-01T19:19:18.936Z,0.47
2023-04-01T19:21:55.822Z,0.40
2023-04-01T19:24:47.053Z,0.50
2023-04-01T19:27:27.394Z,0.45
2023-04-01T19:30:25.952Z,0.50
2023-04-01T19:33:11.562Z,0.32
2023-04-01T19:35:59.636Z,0.43
2023-04-01T19:38:42.882Z,0.80
2023-04-01T19:41:36.245Z,0.60
2023-04-01T19:44:14.710Z,0.45
2023-04-01T19:46:50.864Z,0.60
2023-04-01T19:49:38.646Z,0.85
2023-04-01T19:52:31.730Z,0.60
2023-04-01T19:55:16.971Z,0.60
2023-04-01T19:58:10.561Z,0.68
2023-04-01T20:00:58.513Z,0.70
2023-04-01T20:04:12.056Z,0.65
2023-04-01T20:06:55.611Z,0.63
2023-04-01T20:09:31.545Z,0.57
2023-04-01T20:12:21.305Z,0.60
2023-04-01T20:14:54.066Z,0.50
2023-04-01T20:17:33.388Z,0.60
2023-04-01T20:20:12.201Z,0.75
2023-04-01T20:22:44.800Z,0.70
2023-04-01T20:25:27.382Z,0.63
2023-04-01T20:28:21.559Z,0.50
2023-04-01T20:30:55.897Z,0.50
2023-04-01T20:33:59.668Z,0.50
2023-04-01T20:36:34.883Z,0.50
2023-04-01T20:39:34.725Z,0.68
2023-04-01T20:42:20.754Z,0.57
2023-04-01T20:45:15.029Z,0.63
2023-04-01T20:48:03.046Z,0.70
2023-04-01T20:50:36.377Z,0.50
2023-04-01T20:53:16.485Z,0.55
2023-04-01T20:56:02.637Z,0.60
2023-04-01T20:58:42.410Z,0.40
2023-04-01T21:01:36.490Z,0.73
2023-04-01T21:04:31.167Z,0.68
2023-04-01T21:07:19.474Z,0.60
2023-04-01T21:10:10.323Z,0.70
2023-04-01T21:12:59.811Z,0.50
2023-04-01T21:15:58.489Z,0.77
2023-04-01T21:18:42.174Z,0.50
2023-04-01T21:22:05.277Z,0.70
2023-04-01T21:25:08.522Z,0.60
2023-04-01T21:27:41.317Z,0.80
2023-04-01T21:30:44.503Z,0.80
2023-04-01T21:33:26.290Z,0.90
2023-04-01T21:36:07.481Z,0.68
2023-04-01T21:38:52.688Z,0.60
2023-04-01T21:41:31.333Z,0.60
2023-04-01T21:44:00.814Z,0.52
2023-04-01T21:46:56.567Z,0.70
2023-04-01T21:49:54.355Z,0.63
2023-04-01T21:52:46.267Z,0.60
2023-04-01T21:55:30.487Z,0.50
2023-04-01T22:00:43.493Z,0.65
2023-04-01T22:03:30.562Z,0.90
2023-04-01T22:06:14.307Z,0.70
2023-04-01T22:09:03.246Z,0.75
2023-04-01T22:11:50.750Z,1.00
2023-04-01T22:14:27.440Z,0.80
2023-04-01T22:17:04.290Z,1.17
2023-04-01T22:19:33.977Z,0.85
2023-04-01T22:22:30.099Z,0.88
2023-04-01T22:25:31.841Z,0.80
2023-04-01T22:28:10.683Z,0.82
2023-04-01T22:30:46.674Z,1.00
2023-04-01T22:33:32.101Z,0.73
2023-04-01T22:36:17.442Z,0.98
2023-04-01T22:39:22.945Z,0.75
2023-04-01T22:42:40.634Z,0.80
2023-04-01T22:45:53.581Z,0.93
2023-04-01T22:48:35.081Z,1.10
2023-04-01T22:51:14.739Z,0.75
2023-04-01T22:54:12.864Z,0.70
2023-04-01T22:57:00.601Z,0.93
2023-04-01T22:59:53.476Z,0.80
2023-04-01T23:02:30.736Z,0.63
2023-04-01T23:05:03.235Z,0.98
2023-04-01T23:07:50.296Z,0.70
2023-04-01T23:10:43.355Z,1.33
2023-04-01T23:13:16.786Z,1.10
2023-04-01T23:15:45.925Z,1.00
2023-04-01T23:18:37.189Z,0.80
2023-04-01T23:21:03.819Z,1.00
2023-04-01T23:23:56.615Z,1.05
2023-04-01T23:26:23.219Z,1.02
2023-04-01T23:28:56.572Z,0.98
2023-04-01T23:31:33.829Z,1.10
2023-04-01T23:34:04.596Z,1.10
2023-04-01T23:36:38.067Z,1.17
2023-04-01T23:39:14.890Z,1.20
2023-04-01T23:41:46.554Z,1.05
2023-04-01T23:44:14.658Z,1.30
2023-04-01T23:46:45.740Z,1.27
2023-04-01T23:49:21.799Z,1.30
2023-04-01T23:52:13.176Z,1.38
2023-04-01T23:54:53.309Z,1.42
2023-04-01T23:57:29.808Z,1.42
